createdAt,value
2019-02-24T00:02:13.450Z,99.90
2019-02-24T00:04:43.995Z,99.90
2019-02-24T00:07:14.866Z,99.90
2019-02-24T00:09:45.939Z,99.90
2019-02-24T00:12:16.559Z,99.90
2019-02-24T00:14:47.088Z,99.90
2019-02-24T00:17:17.620Z,99.90
2019-02-24T00:19:50.741Z,99.90
2019-02-24T00:22:21.242Z,99.90
2019-02-24T00:24:51.775Z,99.90
2019-02-24T00:27:22.286Z,99.90
2019-02-24T00:29:52.803Z,99.90
2019-02-24T00:32:23.372Z,99.90
2019-02-24T00:34:54.259Z,99.90
2019-02-24T00:37:24.748Z,99.90
2019-02-24T00:39:55.301Z,99.90
2019-02-24T00:42:25.837Z,99.90
2019-02-24T00:44:56.367Z,99.90
2019-02-24T00:47:26.856Z,99.90
2019-02-24T00:49:57.387Z,99.90
2019-02-24T00:52:27.890Z,99.90
2019-02-24T00:54:58.428Z,99.90
2019-02-24T00:57:28.951Z,99.90
2019-02-24T00:59:59.484Z,99.90
2019-02-24T01:02:30.047Z,99.90
2019-02-24T01:05:00.731Z,99.90
2019-02-24T01:07:31.361Z,99.90
2019-02-24T01:10:02.001Z,99.90
2019-02-24T01:12:32.842Z,99.90
2019-02-24T01:15:03.358Z,99.90
2019-02-24T01:17:33.860Z,99.90
2019-02-24T01:20:04.586Z,99.90
2019-02-24T01:22:35.098Z,99.90
2019-02-24T01:25:05.741Z,99.90
2019-02-24T01:27:36.389Z,99.90
2019-02-24T01:30:07.415Z,99.90
2019-02-24T01:32:38.038Z,99.90
2019-02-24T01:35:08.704Z,99.90
2019-02-24T01:37:39.198Z,99.90
2019-02-24T01:40:09.811Z,99.90
2019-02-24T01:42:40.607Z,99.90
2019-02-24T01:45:11.147Z,99.90
2019-02-24T01:47:41.653Z,99.90
2019-02-24T01:50:12.377Z,99.90
2019-02-24T01:52:42.821Z,99.90
2019-02-24T01:55:13.321Z,99.90
2019-02-24T01:57:43.871Z,99.90
2019-02-24T02:00:14.395Z,99.90
2019-02-24T02:02:44.920Z,99.90
2019-02-24T02:05:15.427Z,99.90
2019-02-24T02:07:46.049Z,99.90
2019-02-24T02:10:16.590Z,99.90
2019-02-24T02:12:47.323Z,99.90
2019-02-24T02:15:18.036Z,99.90
2019-02-24T02:17:48.671Z,99.90
2019-02-24T02:20:20.055Z,99.90
2019-02-24T02:22:51.443Z,99.90
2019-02-24T02:25:21.987Z,99.90
2019-02-24T02:27:52.534Z,99.90
2019-02-24T02:30:23.061Z,99.90
2019-02-24T02:32:53.598Z,99.90
2019-02-24T02:35:24.300Z,99.90
2019-02-24T02:37:54.783Z,99.90
2019-02-24T02:40:25.309Z,99.90
2019-02-24T02:42:55.795Z,99.90
2019-02-24T02:45:30.232Z,99.90
2019-02-24T02:48:00.786Z,99.90
2019-02-24T02:50:31.333Z,99.90
2019-02-24T02:53:01.938Z,99.90
2019-02-24T02:55:32.432Z,99.90
2019-02-24T02:58:02.997Z,99.90
2019-02-24T03:00:34.705Z,99.90
2019-02-24T03:03:05.200Z,99.90
2019-02-24T03:05:35.736Z,99.90
2019-02-24T03:08:08.929Z,99.90
2019-02-24T03:10:39.648Z,99.90
2019-02-24T03:13:10.150Z,99.90
2019-02-24T03:15:40.666Z,99.90
2019-02-24T03:18:11.208Z,99.90
2019-02-24T03:20:41.847Z,99.90
2019-02-24T03:23:12.521Z,99.90
2019-02-24T03:25:43.083Z,99.90
2019-02-24T03:28:13.596Z,99.90
2019-02-24T03:30:44.122Z,99.90
2019-02-24T03:33:14.641Z,99.90
2019-02-24T03:35:45.260Z,99.90
2019-02-24T03:38:15.763Z,99.90
2019-02-24T03:40:46.279Z,99.90
2019-02-24T03:43:17.306Z,99.90
2019-02-24T03:45:48.187Z,99.90
2019-02-24T03:48:19.576Z,99.90
2019-02-24T03:50:51.008Z,99.90
2019-02-24T03:53:21.508Z,99.90
2019-02-24T03:55:52.540Z,99.90
2019-02-24T03:58:23.209Z,99.90
2019-02-24T04:00:53.767Z,99.90
2019-02-24T04:03:24.599Z,99.90
2019-02-24T04:05:59.248Z,99.90
2019-02-24T04:08:30.134Z,99.90
2019-02-24T04:11:01.126Z,99.90
2019-02-24T04:13:50.945Z,99.90
2019-02-24T04:16:21.587Z,99.90
2019-02-24T04:18:52.221Z,99.90
2019-02-24T04:21:22.936Z,99.90
2019-02-24T04:23:53.669Z,99.90
2019-02-24T04:26:24.175Z,99.90
2019-02-24T04:28:54.736Z,99.90
2019-02-24T04:31:25.252Z,99.90
2019-02-24T04:33:55.751Z,99.90
2019-02-24T04:36:26.281Z,99.90
2019-02-24T04:38:56.788Z,99.90
2019-02-24T04:41:27.365Z,99.90
2019-02-24T04:43:58.067Z,99.90
2019-02-24T04:46:28.601Z,99.90
2019-02-24T04:48:59.113Z,99.90
2019-02-24T04:51:29.653Z,99.90
2019-02-24T04:54:00.171Z,99.90
2019-02-24T04:56:30.723Z,99.90
2019-02-24T04:59:01.224Z,99.90
2019-02-24T05:01:31.793Z,99.90
2019-02-24T05:04:02.317Z,99.90
2019-02-24T05:06:33.026Z,99.90
2019-02-24T05:09:04.266Z,99.90
2019-02-24T05:11:34.827Z,99.90
2019-02-24T05:14:05.635Z,99.90
2019-02-24T05:16:36.176Z,99.90
2019-02-24T05:19:06.721Z,99.90
2019-02-24T05:21:37.230Z,99.90
2019-02-24T05:24:07.747Z,99.90
2019-02-24T05:26:38.269Z,99.90
2019-02-24T05:29:08.811Z,99.90
2019-02-24T05:31:39.350Z,99.90
2019-02-24T05:34:09.883Z,99.90
2019-02-24T05:36:40.440Z,99.90
2019-02-24T05:39:11.485Z,99.90
2019-02-24T05:41:41.992Z,99.90
2019-02-24T05:44:12.524Z,99.90
2019-02-24T05:46:43.048Z,99.90
2019-02-24T05:49:14.448Z,99.90
2019-02-24T05:51:44.963Z,99.90
2019-02-24T05:54:16.108Z,99.90
2019-02-24T05:56:46.603Z,99.90
2019-02-24T05:59:17.101Z,99.90
2019-02-24T06:01:47.635Z,99.90
2019-02-24T06:04:18.172Z,99.90
2019-02-24T06:06:48.700Z,99.90
2019-02-24T06:09:19.204Z,99.90
2019-02-24T06:11:49.723Z,99.90
2019-02-24T06:14:20.409Z,99.90
2019-02-24T06:16:51.257Z,99.90
2019-02-24T06:19:21.827Z,99.90
2019-02-24T06:21:52.345Z,99.90
2019-02-24T06:24:23.299Z,99.90
2019-02-24T06:26:53.966Z,99.90
2019-02-24T06:29:24.476Z,99.90
2019-02-24T06:31:55.017Z,99.90
2019-02-24T06:34:26.058Z,99.90
2019-02-24T06:36:56.569Z,99.90
2019-02-24T06:39:27.098Z,99.90
2019-02-24T06:41:57.814Z,99.90
2019-02-24T06:44:28.323Z,99.90
2019-02-24T06:46:58.828Z,99.90
2019-02-24T06:49:29.362Z,99.90
2019-02-24T06:51:59.867Z,99.90
2019-02-24T06:54:30.426Z,99.90
2019-02-24T06:57:00.958Z,99.90
2019-02-24T06:59:31.447Z,99.90
2019-02-24T07:02:02.002Z,99.90
2019-02-24T07:04:32.505Z,99.50
2019-02-24T07:07:03.053Z,99.00
2019-02-24T07:09:33.565Z,98.70
2019-02-24T07:12:04.257Z,98.70
2019-02-24T07:14:34.778Z,99.10
2019-02-24T07:17:05.339Z,98.50
2019-02-24T07:19:36.215Z,96.60
2019-02-24T07:22:06.714Z,94.90
2019-02-24T07:24:37.299Z,93.20
2019-02-24T07:27:07.843Z,92.60
2019-02-24T07:29:38.356Z,91.30
2019-02-24T07:32:08.937Z,90.40
2019-02-24T07:34:39.451Z,89.00
2019-02-24T07:37:12.929Z,85.90
2019-02-24T07:39:42.097Z,91.40
2019-02-24T07:42:12.660Z,80.00
2019-02-24T07:44:43.321Z,70.40
2019-02-24T07:47:13.827Z,67.80
2019-02-24T07:49:44.330Z,65.80
2019-02-24T07:52:14.883Z,65.00
2019-02-24T07:54:45.389Z,69.90
2019-02-24T07:57:15.965Z,85.80
2019-02-24T07:59:46.471Z,72.50
2019-02-24T08:02:17.075Z,72.60
2019-02-24T08:04:47.581Z,63.50
2019-02-24T08:07:18.188Z,55.20
2019-02-24T08:09:48.708Z,49.20
2019-02-24T08:12:19.224Z,43.70
2019-02-24T08:14:50.754Z,40.70
2019-02-24T08:17:21.308Z,37.60
2019-02-24T08:19:52.339Z,36.80
2019-02-24T08:22:22.862Z,33.80
2019-02-24T08:24:53.495Z,29.20
2019-02-24T08:27:24.016Z,28.50
2019-02-24T08:29:54.563Z,27.30
2019-02-24T08:32:25.083Z,26.10
2019-02-24T08:34:55.647Z,27.80
2019-02-24T08:37:26.176Z,26.50
2019-02-24T08:39:56.709Z,26.00
2019-02-24T08:42:27.235Z,24.60
2019-02-24T08:44:57.985Z,26.60
2019-02-24T08:47:28.560Z,25.70
2019-02-24T08:49:59.179Z,27.30
2019-02-24T08:52:29.675Z,27.50
2019-02-24T08:55:00.289Z,27.20
2019-02-24T08:57:30.880Z,27.10
2019-02-24T09:00:01.411Z,27.60
2019-02-24T09:02:31.939Z,29.50
2019-02-24T09:05:02.497Z,29.40
2019-02-24T09:07:33.048Z,29.90
2019-02-24T09:10:03.617Z,30.80
2019-02-24T09:12:34.151Z,29.60
2019-02-24T09:15:04.986Z,28.60
2019-02-24T09:17:35.515Z,29.00
2019-02-24T09:20:06.268Z,29.20
2019-02-24T09:22:36.858Z,28.60
2019-02-24T09:25:07.384Z,28.60
2019-02-24T09:27:37.943Z,28.10
2019-02-24T09:30:09.079Z,29.20
2019-02-24T09:32:39.631Z,28.20
2019-02-24T09:35:10.202Z,26.10
2019-02-24T09:37:40.787Z,25.20
2019-02-24T09:40:11.301Z,25.50
2019-02-24T09:42:41.831Z,26.20
2019-02-24T09:45:12.459Z,26.00
2019-02-24T09:47:46.662Z,26.00
2019-02-24T09:50:15.232Z,26.70
2019-02-24T09:52:45.798Z,27.30
2019-02-24T09:55:16.348Z,26.60
2019-02-24T09:57:46.875Z,27.30
2019-02-24T10:00:17.457Z,27.40
2019-02-24T10:02:47.999Z,26.60
2019-02-24T10:05:18.527Z,26.50
2019-02-24T10:07:49.083Z,27.50
2019-02-24T10:10:19.635Z,27.70
2019-02-24T10:12:50.182Z,28.90
2019-02-24T10:15:20.759Z,28.50
2019-02-24T10:17:54.148Z,28.60
2019-02-24T10:20:25.035Z,28.90
2019-02-24T10:22:55.588Z,28.60
2019-02-24T10:25:26.154Z,28.60
2019-02-24T10:27:56.676Z,30.40
2019-02-24T10:30:27.267Z,31.80
2019-02-24T10:32:57.829Z,34.70
2019-02-24T10:35:28.378Z,33.20
2019-02-24T10:37:58.955Z,33.50
2019-02-24T10:40:31.082Z,33.00
2019-02-24T10:43:01.945Z,31.70
2019-02-24T10:45:32.579Z,31.70
2019-02-24T10:48:03.109Z,29.20
2019-02-24T10:50:33.727Z,29.30
2019-02-24T10:53:04.720Z,31.00
2019-02-24T10:55:35.254Z,32.10
2019-02-24T10:58:07.958Z,33.90
2019-02-24T11:00:38.949Z,35.40
2019-02-24T11:03:09.490Z,39.00
2019-02-24T11:05:40.067Z,41.40
2019-02-24T11:08:10.615Z,45.80
2019-02-24T11:10:41.158Z,45.40
2019-02-24T11:13:13.284Z,45.00
2019-02-24T11:15:43.830Z,45.60
2019-02-24T11:18:14.329Z,45.10
2019-02-24T11:20:44.878Z,45.40
2019-02-24T11:23:15.427Z,43.30
2019-02-24T11:25:45.995Z,43.80
2019-02-24T11:28:16.543Z,44.30
2019-02-24T11:30:47.120Z,43.00
2019-02-24T11:33:17.626Z,42.80
2019-02-24T11:35:48.156Z,41.90
2019-02-24T11:38:18.762Z,42.80
2019-02-24T11:40:49.272Z,45.30
2019-02-24T11:43:19.803Z,45.70
2019-02-24T11:45:50.371Z,47.80
2019-02-24T11:48:20.961Z,48.40
2019-02-24T11:50:51.502Z,50.50
2019-02-24T11:53:22.230Z,49.10
2019-02-24T11:55:53.906Z,46.40
2019-02-24T11:58:24.428Z,45.90
2019-02-24T12:00:54.999Z,49.00
2019-02-24T12:03:25.591Z,48.90
2019-02-24T12:05:56.086Z,51.20
2019-02-24T12:08:26.639Z,50.30
2019-02-24T12:10:57.199Z,48.30
2019-02-24T12:13:27.762Z,47.30
2019-02-24T12:15:58.320Z,46.30
2019-02-24T12:18:28.863Z,46.20
2019-02-24T12:20:59.380Z,43.30
2019-02-24T12:23:29.907Z,41.60
2019-02-24T12:26:00.473Z,41.50
2019-02-24T12:28:31.025Z,44.30
2019-02-24T12:31:01.679Z,44.20
2019-02-24T12:33:32.364Z,44.50
2019-02-24T12:36:02.893Z,44.10
2019-02-24T12:38:33.778Z,46.10
2019-02-24T12:41:04.376Z,46.30
2019-02-24T12:43:35.048Z,46.20
2019-02-24T12:46:05.571Z,44.10
2019-02-24T12:48:36.546Z,44.30
2019-02-24T12:51:07.110Z,43.60
2019-02-24T12:53:37.996Z,42.70
2019-02-24T12:56:08.504Z,40.20
2019-02-24T12:58:39.323Z,40.80
2019-02-24T13:01:09.835Z,40.40
2019-02-24T13:03:40.503Z,40.30
2019-02-24T13:06:11.027Z,40.80
2019-02-24T13:08:41.561Z,42.50
2019-02-24T13:11:12.574Z,42.70
2019-02-24T13:13:43.180Z,42.80
2019-02-24T13:16:14.023Z,43.00
2019-02-24T13:18:44.575Z,47.10
2019-02-24T13:21:15.086Z,51.30
2019-02-24T13:23:45.793Z,54.20
2019-02-24T13:26:16.686Z,56.40
2019-02-24T13:28:50.454Z,57.20
2019-02-24T13:31:19.450Z,57.60
2019-02-24T13:33:49.963Z,57.60
2019-02-24T13:36:20.925Z,56.50
2019-02-24T13:38:51.660Z,56.80
2019-02-24T13:41:22.239Z,55.10
2019-02-24T13:43:52.798Z,55.90
2019-02-24T13:46:23.350Z,55.30
2019-02-24T13:48:54.260Z,55.00
2019-02-24T13:51:24.764Z,54.50
2019-02-24T13:53:55.291Z,56.80
2019-02-24T13:56:30.112Z,58.60
2019-02-24T13:59:00.663Z,59.40
2019-02-24T14:01:31.976Z,58.70
2019-02-24T14:04:02.470Z,56.30
2019-02-24T14:06:33.074Z,55.90
2019-02-24T14:09:03.715Z,55.60
2019-02-24T14:11:34.240Z,55.20
2019-02-24T14:14:04.826Z,56.90
2019-02-24T14:16:35.355Z,58.90
2019-02-24T14:19:05.911Z,60.00
2019-02-24T14:21:36.435Z,61.00
2019-02-24T14:24:06.926Z,61.40
2019-02-24T14:26:37.578Z,62.50
2019-02-24T14:29:08.127Z,63.70
2019-02-24T14:31:38.727Z,65.70
2019-02-24T14:34:09.355Z,68.40
2019-02-24T14:36:40.831Z,72.20
2019-02-24T14:39:11.878Z,73.00
2019-02-24T14:41:42.387Z,73.80
2019-02-24T14:44:12.938Z,73.30
2019-02-24T14:46:44.823Z,72.50
2019-02-24T14:49:16.081Z,71.60
2019-02-24T14:51:47.947Z,70.60
2019-02-24T14:54:20.266Z,70.40
2019-02-24T14:56:53.613Z,70.00
2019-02-24T14:59:24.609Z,70.40
2019-02-24T15:01:56.248Z,71.20
2019-02-24T15:04:27.492Z,73.70
2019-02-24T15:06:58.163Z,75.40
2019-02-24T15:09:29.009Z,78.30
2019-02-24T15:12:01.110Z,80.60
2019-02-24T15:14:32.329Z,83.10
2019-02-24T15:17:02.943Z,89.00
2019-02-24T15:19:33.507Z,90.70
2019-02-24T15:22:04.618Z,91.60
2019-02-24T15:24:35.167Z,92.50
2019-02-24T15:27:05.684Z,93.70
2019-02-24T15:29:36.234Z,94.90
2019-02-24T15:32:07.244Z,95.70
2019-02-24T15:34:39.133Z,97.10
2019-02-24T15:37:09.711Z,98.30
2019-02-24T15:39:40.280Z,99.70
2019-02-24T15:42:11.604Z,99.90
2019-02-24T15:44:42.789Z,99.90
2019-02-24T15:47:13.839Z,99.90
2019-02-24T15:49:44.438Z,99.90
2019-02-24T15:52:17.899Z,99.90
2019-02-24T15:54:49.527Z,99.90
2019-02-24T15:57:20.476Z,99.90
2019-02-24T15:59:51.018Z,99.90
2019-02-24T16:02:21.767Z,99.90
2019-02-24T16:04:52.331Z,99.90
2019-02-24T16:07:23.000Z,99.90
2019-02-24T16:09:53.565Z,99.90
2019-02-24T16:12:24.575Z,99.90
2019-02-24T16:14:55.271Z,99.90
2019-02-24T16:17:25.977Z,99.90
2019-02-24T16:19:56.499Z,99.90
2019-02-24T16:22:27.160Z,99.90
2019-02-24T16:24:57.689Z,99.90
2019-02-24T16:27:28.261Z,99.90
2019-02-24T16:29:58.782Z,99.90
2019-02-24T16:32:29.443Z,99.90
2019-02-24T16:35:00.266Z,99.90
2019-02-24T16:37:30.757Z,99.90
2019-02-24T16:40:01.308Z,99.90
2019-02-24T16:42:31.980Z,99.90
2019-02-24T16:45:02.683Z,99.90
2019-02-24T16:47:33.282Z,99.90
2019-02-24T16:50:04.408Z,99.90
2019-02-24T16:52:35.155Z,99.90
2019-02-24T16:55:06.038Z,99.90
2019-02-24T16:57:36.571Z,99.90
2019-02-24T17:00:09.614Z,99.90
2019-02-24T17:02:40.147Z,99.90
2019-02-24T17:05:10.668Z,99.90
2019-02-24T17:07:41.198Z,99.90
2019-02-24T17:10:13.073Z,99.90
2019-02-24T17:12:43.638Z,99.90
2019-02-24T17:15:14.935Z,99.90
2019-02-24T17:17:45.528Z,99.90
2019-02-24T17:20:17.131Z,99.90
2019-02-24T17:22:47.675Z,99.90
2019-02-24T17:25:18.348Z,99.90
2019-02-24T17:27:49.031Z,99.90
2019-02-24T17:30:23.821Z,99.90
2019-02-24T17:32:55.173Z,99.90
2019-02-24T17:35:26.211Z,99.90
2019-02-24T17:37:56.743Z,99.90
2019-02-24T17:40:27.270Z,99.90
2019-02-24T17:42:57.927Z,99.90
2019-02-24T17:45:28.791Z,99.90
2019-02-24T17:47:59.819Z,99.90
2019-02-24T17:50:30.343Z,99.90
2019-02-24T17:53:01.124Z,99.90
2019-02-24T17:55:31.667Z,99.90
2019-02-24T17:58:05.260Z,99.90
2019-02-24T18:00:40.962Z,99.90
2019-02-24T18:03:11.467Z,99.90
2019-02-24T18:05:42.987Z,99.90
2019-02-24T18:08:13.584Z,99.90
2019-02-24T18:10:44.080Z,99.90
2019-02-24T18:13:14.611Z,99.90
2019-02-24T18:15:45.668Z,99.90
2019-02-24T18:18:16.156Z,99.90
2019-02-24T18:20:46.715Z,99.90
2019-02-24T18:23:17.871Z,99.90
2019-02-24T18:25:48.515Z,99.90
2019-02-24T18:28:19.075Z,99.90
2019-02-24T18:30:50.191Z,99.90
2019-02-24T18:33:25.073Z,99.90
2019-02-24T18:35:56.396Z,99.90
2019-02-24T18:38:28.056Z,99.90
2019-02-24T18:40:59.040Z,99.90
2019-02-24T18:43:30.213Z,99.90
2019-02-24T18:46:01.216Z,99.90
2019-02-24T18:48:31.752Z,99.90
2019-02-24T18:51:02.319Z,99.90
2019-02-24T18:53:32.899Z,99.90
2019-02-24T18:56:03.403Z,99.90
2019-02-24T18:58:36.185Z,99.90
2019-02-24T19:01:06.763Z,99.90
2019-02-24T19:03:37.712Z,99.90
2019-02-24T19:06:08.295Z,99.90
2019-02-24T19:08:38.822Z,99.90
2019-02-24T19:11:09.387Z,99.90
2019-02-24T19:13:40.324Z,99.90
2019-02-24T19:16:10.859Z,99.90
2019-02-24T19:18:41.679Z,99.90
2019-02-24T19:21:13.795Z,99.90
2019-02-24T19:23:44.639Z,99.90
2019-02-24T19:26:15.260Z,99.90
2019-02-24T19:28:45.771Z,99.90
2019-02-24T19:31:16.362Z,99.90
2019-02-24T19:34:06.986Z,99.90
2019-02-24T19:36:55.213Z,99.90
2019-02-24T19:39:44.482Z,99.90
2019-02-24T19:42:33.452Z,99.90
2019-02-24T19:45:22.111Z,99.90
2019-02-24T19:47:53.203Z,99.90
2019-02-24T19:50:23.988Z,99.90
2019-02-24T19:52:54.605Z,99.90
2019-02-24T19:55:25.712Z,99.90
2019-02-24T19:57:56.765Z,99.90
2019-02-24T20:00:27.286Z,99.90
2019-02-24T20:02:57.851Z,99.90
2019-02-24T20:05:28.428Z,99.90
2019-02-24T20:07:58.971Z,99.90
2019-02-24T20:10:29.658Z,99.90
2019-02-24T20:13:00.213Z,99.90
2019-02-24T20:15:31.667Z,99.90
2019-02-24T20:18:02.280Z,99.90
2019-02-24T20:20:32.819Z,99.90
2019-02-24T20:23:03.388Z,99.90
2019-02-24T20:25:33.912Z,99.90
2019-02-24T20:28:04.947Z,99.90
2019-02-24T20:30:35.488Z,99.90
2019-02-24T20:33:06.057Z,99.90
2019-02-24T20:35:36.605Z,99.90
2019-02-24T20:38:07.147Z,99.90
2019-02-24T20:40:37.691Z,99.90
2019-02-24T20:43:10.670Z,99.90
2019-02-24T20:45:41.209Z,99.90
2019-02-24T20:48:11.740Z,99.90
2019-02-24T20:50:42.337Z,99.90
2019-02-24T20:53:31.363Z,99.90
2019-02-24T20:56:01.335Z,99.90
2019-02-24T20:58:31.831Z,99.90
2019-02-24T21:01:02.368Z,99.90
2019-02-24T21:03:32.912Z,99.90
2019-02-24T21:06:03.518Z,99.90
2019-02-24T21:08:34.104Z,99.90
2019-02-24T21:11:05.149Z,99.90
2019-02-24T21:13:35.644Z,99.90
2019-02-24T21:16:06.207Z,99.90
2019-02-24T21:18:41.450Z,99.90
2019-02-24T21:21:12.001Z,99.90
2019-02-24T21:23:42.652Z,99.90
2019-02-24T21:26:13.204Z,99.90
2019-02-24T21:28:43.723Z,99.90
2019-02-24T21:31:14.251Z,99.90
2019-02-24T21:33:44.766Z,99.90
2019-02-24T21:36:15.404Z,99.90
2019-02-24T21:38:45.923Z,99.90
2019-02-24T21:41:16.519Z,99.90
2019-02-24T21:43:47.079Z,99.90
2019-02-24T21:46:17.615Z,99.90
2019-02-24T21:48:48.175Z,99.90
2019-02-24T21:51:18.875Z,99.90
2019-02-24T21:53:49.429Z,99.90
2019-02-24T21:56:20.049Z,99.90
2019-02-24T21:58:50.591Z,99.90
2019-02-24T22:01:21.162Z,99.90
2019-02-24T22:03:52.049Z,99.90
2019-02-24T22:06:22.629Z,99.90
2019-02-24T22:08:53.163Z,99.90
2019-02-24T22:11:23.704Z,99.90
2019-02-24T22:13:54.380Z,99.90
2019-02-24T22:16:24.927Z,99.90
2019-02-24T22:18:55.432Z,99.90
2019-02-24T22:21:28.243Z,99.90
2019-02-24T22:23:58.828Z,99.90
2019-02-24T22:26:29.364Z,99.90
2019-02-24T22:28:59.942Z,99.90
2019-02-24T22:31:30.503Z,99.90
2019-02-24T22:34:01.028Z,99.90
2019-02-24T22:36:31.590Z,99.90
2019-02-24T22:39:02.128Z,99.90
2019-02-24T22:41:32.629Z,99.90
2019-02-24T22:44:03.599Z,99.90
2019-02-24T22:46:34.860Z,99.90
2019-02-24T22:49:05.390Z,99.90
2019-02-24T22:51:36.021Z,99.90
2019-02-24T22:54:06.660Z,99.90
2019-02-24T22:56:37.202Z,99.90
2019-02-24T22:59:07.719Z,99.90
2019-02-24T23:01:39.729Z,99.90
2019-02-24T23:04:12.130Z,99.90
2019-02-24T23:06:42.689Z,99.90
2019-02-24T23:09:19.042Z,99.90
2019-02-24T23:11:49.987Z,99.90
2019-02-24T23:14:20.586Z,99.90
2019-02-24T23:16:51.096Z,99.90
2019-02-24T23:19:21.940Z,99.90
2019-02-24T23:21:52.462Z,99.90
2019-02-24T23:24:24.182Z,99.90
2019-02-24T23:26:54.744Z,99.90
2019-02-24T23:29:25.296Z,99.90
2019-02-24T23:31:55.825Z,99.90
2019-02-24T23:34:26.397Z,99.90
2019-02-24T23:36:56.896Z,99.90
2019-02-24T23:39:27.404Z,99.90
2019-02-24T23:41:57.961Z,99.90
2019-02-24T23:44:30.376Z,99.90
2019-02-24T23:47:00.954Z,99.90
2019-02-24T23:49:31.591Z,99.90
2019-02-24T23:52:02.130Z,99.90
2019-02-24T23:54:32.646Z,99.90
2019-02-24T23:57:03.244Z,99.90
2019-02-24T23:59:33.773Z,99.90
